Time;durP1;ratioP1;P1;durP2;ratioP2;P2;SDS_P1;SDS_P2;PMS_P1;PMS_P2;Temp;Humidity;BMP_temperature;BMP_pressure;BME280_temperature;BME280_humidity;BME280_pressure;Samples;Min_cycle;Max_cycle;Signal;HPM_P1;HPM_P2
2023/05/29 18:38:59;;;;;;;;;13.00;9.67;;;;;21.61;52.58;101577.28;5068226;27;45664;-72
2023/05/29 18:41:24;;;;;;;;;9.00;7.67;;;;;21.74;52.41;101574.38;5063873;28;45748;-73
2023/05/29 18:43:53;;;;;;;;;10.33;9.00;;;;;21.93;51.52;101575.44;5063411;27;45819;-76
2023/05/29 18:46:21;;;;;;;;;10.00;7.00;;;;;22.08;51.59;101579.47;5057435;27;45727;-75
2023/05/29 18:48:46;;;;;;;;;8.33;7.00;;;;;22.31;51.44;101589.22;5065975;28;46238;-74
2023/05/29 18:51:11;;;;;;;;;8.00;8.00;;;;;22.47;50.87;101592.22;5060058;27;45854;-71
2023/05/29 18:53:40;;;;;;;;;6.67;6.67;;;;;22.64;50.56;101593.38;5061261;27;45681;-70
2023/05/29 18:56:07;;;;;;;;;8.33;7.33;;;;;22.80;50.04;101594.66;5052557;28;45526;-70
2023/05/29 18:58:32;;;;;;;;;8.33;7.00;;;;;22.89;49.89;101595.69;5063214;27;45660;-69
2023/05/29 19:01:00;;;;;;;;;7.33;7.33;;;;;23.08;49.69;101593.91;5058481;27;45678;-69
2023/05/29 19:03:25;;;;;;;;;7.00;6.00;;;;;23.20;49.57;101594.59;5055735;28;45809;-68
2023/05/29 19:05:51;;;;;;;;;12.00;8.67;;;;;23.29;49.86;101605.44;5060519;27;45551;-68
2023/05/29 19:08:17;;;;;;;;;8.33;8.33;;;;;23.39;49.27;101605.47;5059287;28;55443;-73
2023/05/29 19:10:42;;;;;;;;;8.33;6.67;;;;;23.49;48.97;101621.66;5062898;28;45805;-73
2023/05/29 19:13:09;;;;;;;;;6.33;6.33;;;;;23.56;49.08;101611.09;5056257;27;45620;-74
2023/05/29 19:15:34;;;;;;;;;9.00;9.00;;;;;23.63;48.82;101620.31;5063663;27;45632;-71
2023/05/29 19:17:59;;;;;;;;;6.00;6.00;;;;;23.71;48.66;101622.31;5063625;28;47577;-72
2023/05/29 19:20:25;;;;;;;;;6.67;6.67;;;;;23.78;48.54;101618.00;5057299;27;45890;-72
2023/05/29 19:22:53;;;;;;;;;7.67;7.67;;;;;23.85;48.51;101618.25;5055422;27;45697;-72
2023/05/29 19:25:19;;;;;;;;;9.33;9.00;;;;;23.92;48.34;101623.94;5057944;27;45487;-72
2023/05/29 19:27:45;;;;;;;;;8.67;7.00;;;;;23.96;48.22;101625.34;5055236;27;45530;-74
2023/05/29 19:30:11;;;;;;;;;6.00;6.00;;;;;24.02;48.02;101629.28;5056714;27;45863;-71
2023/05/29 19:32:37;;;;;;;;;7.33;7.33;;;;;24.06;48.36;101634.28;5054004;27;45721;-73
2023/05/29 19:35:04;;;;;;;;;8.33;7.00;;;;;24.11;47.65;101638.44;5057101;27;45783;-73
2023/05/29 19:37:30;;;;;;;;;8.00;7.00;;;;;24.15;48.05;101637.97;5057121;27;47428;-74
2023/05/29 19:39:56;;;;;;;;;6.00;6.00;;;;;24.17;47.36;101638.69;5057425;27;45596;-73
2023/05/29 19:42:25;;;;;;;;;8.67;6.67;;;;;24.23;47.81;101633.66;5054382;27;45717;-73
2023/05/29 19:44:50;;;;;;;;;9.67;8.67;;;;;24.27;47.38;101640.50;5058854;27;45772;-73
2023/05/29 19:47:15;;;;;;;;;7.67;7.00;;;;;24.29;47.45;101642.06;5057005;27;45848;-72
2023/05/29 19:49:42;;;;;;;;;9.00;7.00;;;;;24.32;47.32;101643.59;5046823;27;45507;-73
2023/05/29 19:52:09;;;;;;;;;6.67;6.67;;;;;24.37;47.73;101654.84;5043838;28;45787;-74
2023/05/29 19:54:35;;;;;;;;;7.33;6.33;;;;;24.40;46.92;101650.97;5043290;28;46609;-72
2023/05/29 19:57:02;;;;;;;;;9.33;7.67;;;;;24.42;47.47;101663.38;5054650;27;48118;-73
2023/05/29 19:59:28;;;;;;;;;6.00;6.00;;;;;24.40;47.27;101657.25;5040790;28;45746;-76
2023/05/29 20:01:53;;;;;;;;;8.00;6.00;;;;;24.46;47.28;101667.50;5042178;28;45523;-75
2023/05/29 20:04:19;;;;;;;;;5.67;5.67;;;;;24.46;47.12;101662.09;5045529;28;45504;-77
2023/05/29 20:06:44;;;;;;;;;6.67;6.67;;;;;24.48;47.07;101667.31;5041808;28;45384;-74
2023/05/29 20:09:09;;;;;;;;;9.33;7.33;;;;;24.52;47.40;101667.91;5042519;28;45965;-74
2023/05/29 20:11:35;;;;;;;;;5.00;5.00;;;;;24.55;47.65;101673.88;5042208;28;45734;-75
2023/05/29 20:14:00;;;;;;;;;8.33;8.00;;;;;24.57;47.38;101674.56;5043819;28;45720;-74
2023/05/29 20:16:26;;;;;;;;;7.33;6.33;;;;;24.59;47.47;101693.41;5041317;28;46481;-74
2023/05/29 20:18:51;;;;;;;;;5.33;5.00;;;;;24.59;47.32;101667.13;5045852;28;45852;-73
2023/05/29 20:21:17;;;;;;;;;6.33;6.33;;;;;24.61;47.31;101681.38;5043686;28;45897;-74
2023/05/29 20:23:42;;;;;;;;;5.33;4.67;;;;;24.65;47.08;101686.53;5042733;28;45987;-74
2023/05/29 20:26:07;;;;;;;;;5.67;5.67;;;;;24.63;47.24;101681.25;5039440;28;45851;-73
2023/05/29 20:28:33;;;;;;;;;6.00;6.00;;;;;24.66;46.95;101691.81;5043029;28;45728;-74
2023/05/29 20:30:59;;;;;;;;;9.33;5.67;;;;;24.68;47.58;101697.91;5042009;28;45819;-74
2023/05/29 20:33:24;;;;;;;;;7.00;6.00;;;;;24.71;47.24;101702.19;5041711;28;45634;-72
2023/05/29 20:35:49;;;;;;;;;7.00;5.33;;;;;24.72;47.30;101704.75;5038425;28;45645;-71
2023/05/29 20:38:15;;;;;;;;;8.33;7.00;;;;;24.74;47.41;101705.44;5042450;28;47913;-72
2023/05/29 20:40:41;;;;;;;;;7.33;7.33;;;;;24.75;47.10;101698.16;5036428;28;45665;-72
2023/05/29 20:43:06;;;;;;;;;5.00;5.00;;;;;24.79;47.38;101709.56;5037714;28;45860;-72
2023/05/29 20:45:32;;;;;;;;;6.00;6.00;;;;;24.80;47.22;101712.13;5040205;28;46955;-72
2023/05/29 20:47:58;;;;;;;;;5.00;5.00;;;;;24.82;47.20;101706.53;5037873;28;45781;-72
2023/05/29 20:50:25;;;;;;;;;6.00;5.33;;;;;24.82;47.32;101709.25;5039895;28;45800;-73
2023/05/29 20:52:54;;;;;;;;;5.00;5.00;;;;;24.84;47.47;101720.84;5042417;28;45544;-74
2023/05/29 20:55:19;;;;;;;;;7.00;7.00;;;;;24.84;47.04;101719.00;5052661;28;45798;-71
2023/05/29 20:57:45;;;;;;;;;6.00;5.33;;;;;24.87;47.40;101709.69;5054104;28;45765;-71
2023/05/29 21:00:12;;;;;;;;;7.33;7.33;;;;;24.86;47.44;101714.25;5053262;28;45579;-71
2023/05/29 21:02:41;;;;;;;;;5.00;5.00;;;;;24.86;47.44;101710.69;5052800;28;45570;-73
2023/05/29 21:05:08;;;;;;;;;9.00;7.00;;;;;24.91;47.73;101721.09;5037069;28;46146;-71
2023/05/29 21:07:37;;;;;;;;;5.00;4.33;;;;;24.92;47.50;101715.50;5050751;28;45762;-71
2023/05/29 21:10:05;;;;;;;;;5.33;5.00;;;;;24.92;47.51;101709.22;5043549;28;45729;-77
2023/05/29 21:12:31;;;;;;;;;9.00;6.00;;;;;24.94;47.41;101728.94;5042460;28;45715;-77
2023/05/29 21:14:56;;;;;;;;;5.33;4.00;;;;;24.95;47.90;101723.34;5051802;28;45485;-77
2023/05/29 21:17:22;;;;;;;;;8.67;6.00;;;;;24.95;47.48;101728.78;5049601;28;45375;-77
2023/05/29 21:19:47;;;;;;;;;4.67;4.67;;;;;24.95;47.68;101728.78;5049276;28;45332;-76
2023/05/29 21:22:12;;;;;;;;;7.67;6.67;;;;;24.97;47.57;101717.78;5049781;28;47068;-76
2023/05/29 21:24:37;;;;;;;;;6.00;6.00;;;;;24.98;47.98;101725.75;5066021;28;52416;-72
2023/05/29 21:27:03;;;;;;;;;4.00;4.00;;;;;25.00;47.92;101731.88;5045580;28;49635;-72
2023/05/29 21:29:28;;;;;;;;;5.00;5.00;;;;;25.00;47.80;101729.16;5050098;28;45595;-71
2023/05/29 21:31:54;;;;;;;;;6.00;6.00;;;;;25.00;47.42;101731.88;5047999;27;45498;-75
2023/05/29 21:34:21;;;;;;;;;4.67;4.67;;;;;25.03;47.99;101736.16;5047736;28;45480;-74
2023/05/29 21:36:46;;;;;;;;;4.00;4.00;;;;;25.04;47.62;101729.72;5050641;28;45530;-74
2023/05/29 21:39:11;;;;;;;;;6.00;6.00;;;;;25.06;47.99;101735.81;5044925;28;45893;-73
2023/05/29 21:41:37;;;;;;;;;5.00;4.67;;;;;25.07;48.27;101736.69;5050097;28;49743;-72
2023/05/29 21:44:02;;;;;;;;;4.67;4.67;;;;;25.07;47.72;101737.56;5048145;27;45508;-71
